createdAt,value
2022-10-04T00:01:50.034Z,74.70
2022-10-04T00:04:16.728Z,74.60
2022-10-04T00:06:54.616Z,74.70
2022-10-04T00:09:26.194Z,74.60
2022-10-04T00:11:55.705Z,74.60
2022-10-04T00:14:50.855Z,74.70
2022-10-04T00:17:27.243Z,74.60
2022-10-04T00:19:54.883Z,74.60
2022-10-04T00:22:29.395Z,74.70
2022-10-04T00:25:17.502Z,74.70
2022-10-04T00:28:21.504Z,74.60
2022-10-04T00:31:06.993Z,74.60
2022-10-04T00:33:42.779Z,74.70
2022-10-04T00:36:24.532Z,74.80
2022-10-04T00:39:09.200Z,74.80
2022-10-04T00:41:58.616Z,74.80
2022-10-04T00:44:25.216Z,74.80
2022-10-04T00:46:52.759Z,74.80
2022-10-04T00:49:23.388Z,74.80
2022-10-04T00:52:05.555Z,74.90
2022-10-04T00:54:41.462Z,74.80
2022-10-04T00:57:16.751Z,74.80
2022-10-04T00:59:45.517Z,74.80
2022-10-04T01:02:36.595Z,74.70
2022-10-04T01:05:09.231Z,74.60
2022-10-04T01:07:50.507Z,74.80
2022-10-04T01:10:26.975Z,74.80
2022-10-04T01:13:15.955Z,74.80
2022-10-04T01:15:45.024Z,74.70
2022-10-04T01:18:26.987Z,74.90
2022-10-04T01:21:04.647Z,74.90
2022-10-04T01:23:46.807Z,75.00
2022-10-04T01:26:34.425Z,75.00
2022-10-04T01:29:14.829Z,75.00
2022-10-04T01:31:47.645Z,75.20
2022-10-04T01:34:17.108Z,75.30
2022-10-04T01:36:47.142Z,76.00
2022-10-04T01:39:15.885Z,75.50
2022-10-04T01:41:58.276Z,75.60
2022-10-04T01:44:36.639Z,75.60
2022-10-04T01:47:08.116Z,76.10
2022-10-04T01:49:38.535Z,75.50
2022-10-04T01:52:15.192Z,75.40
2022-10-04T01:54:46.416Z,75.40
2022-10-04T01:57:17.948Z,75.50
2022-10-04T02:00:01.351Z,75.60
2022-10-04T02:02:43.176Z,75.60
2022-10-04T02:05:18.437Z,75.70
2022-10-04T02:07:46.089Z,75.80
2022-10-04T02:10:19.294Z,75.90
2022-10-04T02:12:49.568Z,76.00
2022-10-04T02:15:18.427Z,76.10
2022-10-04T02:17:45.523Z,76.20
2022-10-04T02:20:16.751Z,76.30
2022-10-04T02:22:46.023Z,76.40
2022-10-04T02:25:14.636Z,76.50
2022-10-04T02:27:41.481Z,76.50
2022-10-04T02:30:11.458Z,76.50
2022-10-04T02:32:59.687Z,76.60
2022-10-04T02:35:37.735Z,76.70
2022-10-04T02:38:23.540Z,76.70
2022-10-04T02:40:53.949Z,76.60
2022-10-04T02:43:27.309Z,76.90
2022-10-04T02:45:56.379Z,76.90
2022-10-04T02:48:34.456Z,76.40
2022-10-04T02:51:14.879Z,76.90
2022-10-04T02:54:03.380Z,77.10
2022-10-04T02:56:32.355Z,77.00
2022-10-04T02:59:04.450Z,77.30
2022-10-04T03:01:52.070Z,77.40
2022-10-04T03:04:25.200Z,77.30
2022-10-04T03:06:53.143Z,77.60
2022-10-04T03:09:26.116Z,77.70
2022-10-04T03:11:56.373Z,77.80
2022-10-04T03:14:27.999Z,77.90
2022-10-04T03:16:57.815Z,77.90
2022-10-04T03:19:27.559Z,78.00
2022-10-04T03:21:57.521Z,78.10
2022-10-04T03:24:31.045Z,78.10
2022-10-04T03:27:00.415Z,78.20
2022-10-04T03:29:30.173Z,78.30
2022-10-04T03:31:58.148Z,78.40
2022-10-04T03:34:39.701Z,78.50
2022-10-04T03:37:09.633Z,78.60
2022-10-04T03:39:45.772Z,78.60
2022-10-04T03:42:15.792Z,78.60
2022-10-04T03:44:45.293Z,78.70
2022-10-04T03:47:16.082Z,78.90
2022-10-04T03:49:49.907Z,79.00
2022-10-04T03:52:24.711Z,79.10
2022-10-04T03:54:55.115Z,79.20
2022-10-04T03:57:22.729Z,79.30
2022-10-04T03:59:50.559Z,79.30
2022-10-04T04:02:33.610Z,79.40
2022-10-04T04:05:06.696Z,79.40
2022-10-04T04:08:06.567Z,79.60
2022-10-04T04:10:41.928Z,79.50
2022-10-04T04:13:11.329Z,79.90
2022-10-04T04:15:43.376Z,80.00
2022-10-04T04:18:24.424Z,79.90
2022-10-04T04:20:54.390Z,79.90
2022-10-04T04:23:30.035Z,79.90
2022-10-04T04:26:11.678Z,80.00
2022-10-04T04:29:18.860Z,80.10
2022-10-04T04:32:12.932Z,79.90
2022-10-04T04:35:00.497Z,79.90
2022-10-04T04:37:27.172Z,80.00
2022-10-04T04:39:57.742Z,80.30
2022-10-04T04:42:34.848Z,80.30
2022-10-04T04:45:11.812Z,80.30
2022-10-04T04:47:53.368Z,80.50
2022-10-04T04:50:23.624Z,80.40
2022-10-04T04:52:54.828Z,80.50
2022-10-04T04:55:27.843Z,80.60
2022-10-04T04:57:58.067Z,80.60
2022-10-04T05:00:32.780Z,80.80
2022-10-04T05:03:05.750Z,80.70
2022-10-04T05:05:34.116Z,80.80
2022-10-04T05:08:22.253Z,80.90
2022-10-04T05:10:58.179Z,80.60
2022-10-04T05:13:38.967Z,80.70
2022-10-04T05:16:14.344Z,80.70
2022-10-04T05:18:41.068Z,80.70
2022-10-04T05:21:20.319Z,80.80
2022-10-04T05:23:47.303Z,80.90
2022-10-04T05:26:14.395Z,80.90
2022-10-04T05:28:41.923Z,80.40
2022-10-04T05:31:28.769Z,80.90
2022-10-04T05:33:59.162Z,80.90
2022-10-04T05:36:43.024Z,81.00
2022-10-04T05:39:24.697Z,80.90
2022-10-04T05:42:02.529Z,81.00
2022-10-04T05:44:35.074Z,80.90
2022-10-04T05:47:05.436Z,80.90
2022-10-04T05:49:46.444Z,80.80
2022-10-04T05:52:30.715Z,80.80
2022-10-04T05:55:12.863Z,80.60
2022-10-04T05:57:54.324Z,80.60
2022-10-04T06:00:25.459Z,80.70
2022-10-04T06:03:26.832Z,80.70
2022-10-04T06:06:06.134Z,80.50
2022-10-04T06:08:38.520Z,80.60
2022-10-04T06:11:16.595Z,80.60
2022-10-04T06:14:04.972Z,80.50
2022-10-04T06:17:06.197Z,80.40
2022-10-04T06:19:53.072Z,80.30
2022-10-04T06:22:22.683Z,80.50
2022-10-04T06:25:03.210Z,80.70
2022-10-04T06:27:53.897Z,80.70
2022-10-04T06:30:21.566Z,80.80
2022-10-04T06:33:03.180Z,81.10
2022-10-04T06:35:36.044Z,81.30
2022-10-04T06:38:20.566Z,81.40
2022-10-04T06:41:11.299Z,81.50
2022-10-04T06:44:08.724Z,81.50
2022-10-04T06:46:43.075Z,81.50
2022-10-04T06:49:09.787Z,81.70
2022-10-04T06:51:58.466Z,82.00
2022-10-04T06:54:46.249Z,81.50
2022-10-04T06:57:41.088Z,80.80
2022-10-04T07:00:26.174Z,80.60
2022-10-04T07:02:59.888Z,80.30
2022-10-04T07:05:36.825Z,80.20
2022-10-04T07:08:31.180Z,80.00
2022-10-04T07:11:22.529Z,79.90
2022-10-04T07:14:03.624Z,79.80
2022-10-04T07:16:54.608Z,79.70
2022-10-04T07:19:49.031Z,79.60
2022-10-04T07:22:51.141Z,79.30
2022-10-04T07:25:51.835Z,79.40
2022-10-04T07:28:44.141Z,79.50
2022-10-04T07:31:31.004Z,79.50
2022-10-04T07:34:15.984Z,79.40
2022-10-04T07:36:53.222Z,79.00
2022-10-04T07:39:29.619Z,78.70
2022-10-04T07:42:38.833Z,78.00
2022-10-04T07:45:19.458Z,77.70
2022-10-04T07:47:46.151Z,77.20
2022-10-04T07:50:22.032Z,76.60
2022-10-04T07:53:09.660Z,76.30
2022-10-04T07:55:57.193Z,75.50
2022-10-04T07:58:23.857Z,75.10
2022-10-04T08:01:10.104Z,74.90
2022-10-04T08:03:56.439Z,75.00
2022-10-04T08:06:43.970Z,75.00
2022-10-04T08:09:10.759Z,75.00
2022-10-04T08:11:50.013Z,75.00
2022-10-04T08:14:51.715Z,74.90
2022-10-04T08:17:55.855Z,75.10
2022-10-04T08:20:36.764Z,75.00
2022-10-04T08:23:18.185Z,75.10
2022-10-04T08:26:32.523Z,75.00
2022-10-04T08:29:44.008Z,74.80
2022-10-04T08:32:32.181Z,74.90
2022-10-04T08:35:27.874Z,74.50
2022-10-04T08:37:54.543Z,74.50
2022-10-04T08:40:32.931Z,74.20
2022-10-04T08:43:37.421Z,74.20
2022-10-04T08:46:25.354Z,73.80
2022-10-04T08:49:10.567Z,73.90
2022-10-04T08:51:58.931Z,74.20
2022-10-04T08:54:51.959Z,74.30
2022-10-04T08:57:33.226Z,74.30
2022-10-04T09:00:16.552Z,74.20
2022-10-04T09:03:13.939Z,74.00
2022-10-04T09:06:10.874Z,74.10
2022-10-04T09:08:46.727Z,73.70
2022-10-04T09:11:43.100Z,73.50
2022-10-04T09:14:40.122Z,73.60
2022-10-04T09:17:46.735Z,73.50
2022-10-04T09:20:40.155Z,73.30
2022-10-04T09:23:24.884Z,73.20
2022-10-04T09:26:14.310Z,73.00
2022-10-04T09:29:08.208Z,73.70
2022-10-04T09:32:02.492Z,73.00
2022-10-04T09:34:38.639Z,72.70
2022-10-04T09:37:23.948Z,72.60
2022-10-04T09:40:09.571Z,72.20
2022-10-04T09:42:54.505Z,71.80
2022-10-04T09:45:36.216Z,71.50
2022-10-04T09:48:25.152Z,71.50
2022-10-04T09:51:13.052Z,71.60
2022-10-04T09:54:09.830Z,71.60
2022-10-04T09:57:13.196Z,71.40
2022-10-04T10:00:01.484Z,71.40
2022-10-04T10:02:55.468Z,71.40
2022-10-04T10:05:49.155Z,71.40
2022-10-04T10:08:28.487Z,71.00
2022-10-04T10:11:25.220Z,70.90
2022-10-04T10:14:29.967Z,71.10
2022-10-04T10:17:00.898Z,70.10
2022-10-04T10:19:54.732Z,69.90
2022-10-04T10:22:31.239Z,69.70
2022-10-04T10:25:20.725Z,69.40
2022-10-04T10:27:55.884Z,69.70
2022-10-04T10:30:25.755Z,70.00
2022-10-04T10:33:24.930Z,70.10
2022-10-04T10:36:16.994Z,70.20
2022-10-04T10:38:46.640Z,69.80
2022-10-04T10:41:37.139Z,69.50
2022-10-04T10:44:23.365Z,69.20
2022-10-04T10:47:01.507Z,69.30
2022-10-04T10:49:36.815Z,68.80
2022-10-04T10:52:38.309Z,68.60
2022-10-04T10:55:28.730Z,68.70
2022-10-04T10:58:29.225Z,68.80
2022-10-04T11:01:14.469Z,69.20
2022-10-04T11:04:03.209Z,69.20
2022-10-04T11:07:14.807Z,69.10
2022-10-04T11:09:47.361Z,68.70
2022-10-04T11:12:41.739Z,68.20
2022-10-04T11:15:33.123Z,67.10
2022-10-04T11:18:21.451Z,66.80
2022-10-04T11:21:07.988Z,66.40
2022-10-04T11:23:53.370Z,65.60
2022-10-04T11:26:49.345Z,64.90
2022-10-04T11:29:37.773Z,64.70
2022-10-04T11:32:51.204Z,64.60
2022-10-04T11:35:36.804Z,64.10
2022-10-04T11:38:11.118Z,63.40
2022-10-04T11:40:59.946Z,63.20
2022-10-04T11:43:46.396Z,62.00
2022-10-04T11:46:29.503Z,61.80
2022-10-04T11:49:22.408Z,61.70
2022-10-04T11:52:13.074Z,62.00
2022-10-04T11:55:01.090Z,61.80
2022-10-04T11:57:52.389Z,61.40
2022-10-04T12:00:21.615Z,61.40
2022-10-04T12:03:27.685Z,61.20
2022-10-04T12:06:03.435Z,61.10
2022-10-04T12:08:33.233Z,60.00
2022-10-04T12:11:18.062Z,59.40
2022-10-04T12:13:56.241Z,59.30
2022-10-04T12:16:37.004Z,59.40
2022-10-04T12:19:41.131Z,59.90
2022-10-04T12:22:16.608Z,60.20
2022-10-04T12:25:12.696Z,60.30
2022-10-04T12:27:52.616Z,60.50
2022-10-04T12:30:37.800Z,60.70
2022-10-04T12:33:32.296Z,61.30
2022-10-04T12:36:08.468Z,60.80
2022-10-04T12:38:49.885Z,59.60
2022-10-04T12:41:44.782Z,58.70
2022-10-04T12:44:54.282Z,55.50
2022-10-04T12:47:41.793Z,53.70
2022-10-04T12:50:26.081Z,51.10
2022-10-04T12:53:32.097Z,49.70
2022-10-04T12:56:28.116Z,48.40
2022-10-04T12:59:32.124Z,46.90
2022-10-04T13:02:02.238Z,45.90
2022-10-04T13:04:31.713Z,46.90
2022-10-04T13:07:21.358Z,43.40
2022-10-04T13:10:23.618Z,42.90
2022-10-04T13:13:23.330Z,42.00
2022-10-04T13:19:28.126Z,40.60
2022-10-04T13:22:44.370Z,40.70
2022-10-04T13:25:25.993Z,40.10
2022-10-04T13:28:00.817Z,39.00
2022-10-04T13:30:42.783Z,38.30
2022-10-04T13:33:47.670Z,38.60
2022-10-04T13:36:54.179Z,38.00
2022-10-04T13:39:44.511Z,38.40
2022-10-04T13:42:16.609Z,37.70
2022-10-04T13:44:58.698Z,36.80
2022-10-04T13:47:45.256Z,37.90
2022-10-04T13:50:14.694Z,39.10
2022-10-04T13:53:11.708Z,40.00
2022-10-04T13:56:15.960Z,41.40
2022-10-04T13:58:48.503Z,43.00
2022-10-04T14:01:24.401Z,44.70
2022-10-04T14:04:12.043Z,45.10
2022-10-04T14:07:16.379Z,46.60
2022-10-04T14:09:55.052Z,47.50
2022-10-04T14:12:27.584Z,48.50
2022-10-04T14:15:24.104Z,48.90
2022-10-04T14:18:27.168Z,48.70
2022-10-04T14:21:22.038Z,48.80
2022-10-04T14:24:17.216Z,49.10
2022-10-04T14:27:17.390Z,49.80
2022-10-04T14:30:03.140Z,50.40
2022-10-04T14:32:56.820Z,51.30
2022-10-04T14:35:33.455Z,51.70
2022-10-04T14:38:38.242Z,51.60
2022-10-04T14:41:41.322Z,50.30
2022-10-04T14:44:30.438Z,49.80
2022-10-04T14:47:20.376Z,50.10
2022-10-04T14:50:00.288Z,49.90
2022-10-04T14:52:33.912Z,49.90
2022-10-04T14:55:26.239Z,50.30
2022-10-04T14:58:12.152Z,50.80
2022-10-04T15:01:06.246Z,51.00
2022-10-04T15:03:58.184Z,50.50
2022-10-04T15:06:51.704Z,51.00
2022-10-04T15:09:38.021Z,51.40
2022-10-04T15:12:40.564Z,52.00
2022-10-04T15:15:14.258Z,52.40
2022-10-04T15:17:55.128Z,52.60
2022-10-04T15:20:43.968Z,53.30
2022-10-04T15:23:18.393Z,52.70
2022-10-04T15:25:51.715Z,52.80
2022-10-04T15:28:27.201Z,53.50
2022-10-04T15:31:14.211Z,54.00
2022-10-04T15:33:56.500Z,54.30
2022-10-04T15:36:50.906Z,55.00
2022-10-04T15:39:20.521Z,55.70
2022-10-04T15:42:08.717Z,56.00
2022-10-04T15:44:47.760Z,56.40
2022-10-04T15:47:41.933Z,56.70
2022-10-04T15:50:24.156Z,56.80
2022-10-04T15:53:34.393Z,57.30
2022-10-04T15:56:12.201Z,57.80
2022-10-04T15:58:49.339Z,58.10
2022-10-04T16:01:57.021Z,58.50
2022-10-04T16:04:40.276Z,58.50
2022-10-04T16:07:06.966Z,58.80
2022-10-04T16:09:53.707Z,58.80
2022-10-04T16:12:33.135Z,59.00
2022-10-04T16:15:19.768Z,59.50
2022-10-04T16:18:23.976Z,59.20
2022-10-04T16:20:58.907Z,59.50
2022-10-04T16:23:30.072Z,59.60
2022-10-04T16:26:21.344Z,59.90
2022-10-04T16:29:15.940Z,59.90
2022-10-04T16:31:54.564Z,60.40
2022-10-04T16:34:31.656Z,60.70
2022-10-04T16:37:12.415Z,61.00
2022-10-04T16:39:59.838Z,61.40
2022-10-04T16:42:48.011Z,61.70
2022-10-04T16:45:35.570Z,61.70
2022-10-04T16:48:18.061Z,61.90
2022-10-04T16:51:00.578Z,62.20
2022-10-04T16:53:54.740Z,62.40
2022-10-04T16:56:24.350Z,62.50
2022-10-04T16:59:03.663Z,62.60
2022-10-04T17:01:33.959Z,62.70
2022-10-04T17:04:03.443Z,62.40
2022-10-04T17:06:51.468Z,62.90
2022-10-04T17:09:28.676Z,63.10
2022-10-04T17:12:20.477Z,63.30
2022-10-04T17:15:16.287Z,63.30
2022-10-04T17:17:46.357Z,63.50
2022-10-04T17:20:40.870Z,63.70
2022-10-04T17:23:36.666Z,63.60
2022-10-04T17:26:31.787Z,63.80
2022-10-04T17:29:15.961Z,63.90
2022-10-04T17:32:04.176Z,64.10
2022-10-04T17:34:41.046Z,64.10
2022-10-04T17:37:26.649Z,64.30
2022-10-04T17:40:08.922Z,64.30
2022-10-04T17:42:57.162Z,64.50
2022-10-04T17:45:29.840Z,64.50
2022-10-04T17:48:24.113Z,64.70
2022-10-04T17:51:31.427Z,64.90
2022-10-04T17:54:35.193Z,64.80
2022-10-04T17:57:04.648Z,64.90
2022-10-04T17:59:41.036Z,64.90
2022-10-04T18:02:17.458Z,65.00
2022-10-04T18:05:13.045Z,65.00
2022-10-04T18:07:47.794Z,65.00
2022-10-04T18:10:27.635Z,65.20
2022-10-04T18:13:00.048Z,65.20
2022-10-04T18:15:32.751Z,65.30
2022-10-04T18:18:19.416Z,65.40
2022-10-04T18:21:04.494Z,65.40
2022-10-04T18:23:35.869Z,65.50
2022-10-04T18:26:18.070Z,65.60
2022-10-04T18:28:46.114Z,65.70
2022-10-04T18:31:39.221Z,65.80
2022-10-04T18:34:28.558Z,65.80
2022-10-04T18:37:20.054Z,65.80
2022-10-04T18:39:54.597Z,65.90
2022-10-04T18:42:28.705Z,66.10
2022-10-04T18:44:59.117Z,66.10
2022-10-04T18:47:38.007Z,66.10
2022-10-04T18:50:44.719Z,66.20
2022-10-04T18:53:40.440Z,66.10
2022-10-04T18:56:11.720Z,66.40
2022-10-04T18:59:18.688Z,66.50
2022-10-04T19:02:04.058Z,66.50
2022-10-04T19:04:54.634Z,66.50
2022-10-04T19:07:49.863Z,66.60
2022-10-04T19:10:27.171Z,66.70
2022-10-04T19:13:21.364Z,66.90
2022-10-04T19:16:09.192Z,66.90
2022-10-04T19:19:01.874Z,66.90
2022-10-04T19:22:11.245Z,66.90
2022-10-04T19:24:55.708Z,66.90
2022-10-04T19:27:36.290Z,67.20
2022-10-04T19:30:12.458Z,67.20
2022-10-04T19:33:17.294Z,67.20
2022-10-04T19:36:15.247Z,67.20
2022-10-04T19:39:02.723Z,67.20
2022-10-04T19:41:44.222Z,67.30
2022-10-04T19:44:29.556Z,67.40
2022-10-04T19:47:04.439Z,67.40
2022-10-04T19:49:56.961Z,67.40
2022-10-04T19:52:53.229Z,67.40
2022-10-04T19:55:55.739Z,67.30
2022-10-04T19:58:46.801Z,67.30
2022-10-04T20:01:19.348Z,67.30
2022-10-04T20:03:46.327Z,67.50
2022-10-04T20:06:26.101Z,67.50
2022-10-04T20:09:01.497Z,67.50
2022-10-04T20:11:51.824Z,67.50
2022-10-04T20:14:21.327Z,67.40
2022-10-04T20:16:53.167Z,67.50
2022-10-04T20:19:28.763Z,67.50
2022-10-04T20:21:56.734Z,67.50
2022-10-04T20:24:39.251Z,67.50
2022-10-04T20:27:27.798Z,67.40
2022-10-04T20:30:12.415Z,67.50
2022-10-04T20:32:39.013Z,67.50
2022-10-04T20:35:10.352Z,67.50
2022-10-04T20:38:07.901Z,67.50
2022-10-04T20:40:44.040Z,67.40
2022-10-04T20:43:13.472Z,67.50
2022-10-04T20:45:54.980Z,67.50
2022-10-04T20:48:31.193Z,67.40
2022-10-04T20:51:08.769Z,67.40
2022-10-04T20:53:35.851Z,67.40
2022-10-04T20:56:26.432Z,67.50
2022-10-04T20:59:01.487Z,67.40
2022-10-04T21:01:33.241Z,67.50
2022-10-04T21:04:41.326Z,67.40
2022-10-04T21:07:12.835Z,67.50
2022-10-04T21:09:41.792Z,67.50
2022-10-04T21:12:30.218Z,67.60
2022-10-04T21:15:15.376Z,67.40
2022-10-04T21:17:43.281Z,67.50
2022-10-04T21:20:15.393Z,67.50
2022-10-04T21:22:42.387Z,67.50
2022-10-04T21:25:28.402Z,67.50
2022-10-04T21:28:31.998Z,67.50
2022-10-04T21:31:00.386Z,67.50
2022-10-04T21:33:27.018Z,67.60
2022-10-04T21:35:53.603Z,67.70
2022-10-04T21:38:20.266Z,67.50
2022-10-04T21:40:46.864Z,67.80
2022-10-04T21:43:13.527Z,67.60
2022-10-04T21:45:40.150Z,68.00
2022-10-04T21:48:06.801Z,67.80
2022-10-04T21:50:33.407Z,68.00
2022-10-04T21:53:00.067Z,68.10
2022-10-04T21:55:26.808Z,68.10
2022-10-04T21:57:53.426Z,68.10
2022-10-04T22:00:21.127Z,68.00
2022-10-04T22:02:47.854Z,68.30
2022-10-04T22:05:14.471Z,68.30
2022-10-04T22:07:41.131Z,68.10
2022-10-04T22:10:08.118Z,68.40
2022-10-04T22:12:34.786Z,68.40
2022-10-04T22:15:01.743Z,68.50
2022-10-04T22:17:28.369Z,68.60
2022-10-04T22:19:55.112Z,68.70
2022-10-04T22:22:21.748Z,68.70
2022-10-04T22:24:48.396Z,68.40
2022-10-04T22:27:16.799Z,68.90
2022-10-04T22:29:44.055Z,68.90
2022-10-04T22:32:24.532Z,68.90
2022-10-04T22:34:52.032Z,69.00
2022-10-04T22:37:24.180Z,68.90
2022-10-04T22:39:55.403Z,68.90
2022-10-04T22:42:27.937Z,68.90
2022-10-04T22:44:54.595Z,69.00
2022-10-04T22:47:21.347Z,69.20
2022-10-04T22:49:49.568Z,69.30
2022-10-04T22:52:22.350Z,68.90
2022-10-04T22:54:51.939Z,69.40
2022-10-04T22:57:19.738Z,69.40
2022-10-04T22:59:51.520Z,69.50
2022-10-04T23:02:29.164Z,69.60
2022-10-04T23:05:12.151Z,69.60
2022-10-04T23:07:38.906Z,69.60
2022-10-04T23:10:06.164Z,69.70
2022-10-04T23:12:32.829Z,69.40
2022-10-04T23:15:01.585Z,69.80
2022-10-04T23:17:39.423Z,69.90
2022-10-04T23:20:13.748Z,69.90
2022-10-04T23:22:44.739Z,69.90
2022-10-04T23:25:16.067Z,70.00
2022-10-04T23:27:43.287Z,70.00
2022-10-04T23:30:14.668Z,70.00
2022-10-04T23:32:43.173Z,70.00
2022-10-04T23:35:19.415Z,70.00
2022-10-04T23:37:47.831Z,70.00
2022-10-04T23:40:17.935Z,70.00
2022-10-04T23:42:47.904Z,70.10
2022-10-04T23:45:25.496Z,70.10
2022-10-04T23:47:55.283Z,70.20
2022-10-04T23:50:25.462Z,70.20
2022-10-04T23:52:56.651Z,70.20
2022-10-04T23:55:25.889Z,70.20
2022-10-04T23:57:52.533Z,70.30
